createdAt,value
2024-02-24T00:00:14.065Z,51.04
2024-02-24T00:01:18.364Z,50.94
2024-02-24T00:02:20.063Z,51.26
2024-02-24T00:03:22.919Z,51.23
2024-02-24T00:04:27.281Z,51.23
2024-02-24T00:05:29.177Z,51.41
2024-02-24T00:06:30.869Z,51.43
2024-02-24T00:07:32.770Z,51.40
2024-02-24T00:08:36.861Z,51.35
2024-02-24T00:09:38.820Z,51.55
2024-02-24T00:10:43.747Z,51.61
2024-02-24T00:11:45.746Z,51.59
2024-02-24T00:12:50.139Z,51.33
2024-02-24T00:13:54.888Z,51.45
2024-02-24T00:14:56.555Z,51.81
2024-02-24T00:15:58.169Z,51.89
2024-02-24T00:16:59.981Z,51.77
2024-02-24T00:18:01.634Z,51.81
2024-02-24T00:19:03.442Z,51.71
2024-02-24T00:20:09.354Z,51.66
2024-02-24T00:21:11.102Z,51.62
2024-02-24T00:22:14.739Z,51.58
2024-02-24T00:23:17.428Z,51.56
2024-02-24T00:24:19.217Z,51.79
2024-02-24T00:25:20.935Z,51.75
2024-02-24T00:26:25.067Z,51.84
2024-02-24T00:27:26.772Z,51.75
2024-02-24T00:28:28.446Z,51.78
2024-02-24T00:29:30.264Z,51.83
2024-02-24T00:30:31.941Z,51.96
2024-02-24T00:31:33.586Z,51.80
2024-02-24T00:32:35.303Z,52.09
2024-02-24T00:33:37.294Z,51.89
2024-02-24T00:34:39.146Z,51.93
2024-02-24T00:35:41.537Z,51.86
2024-02-24T00:36:43.231Z,51.84
2024-02-24T00:37:46.929Z,52.03
2024-02-24T00:38:50.810Z,51.89
2024-02-24T00:39:53.065Z,51.94
2024-02-24T00:40:56.985Z,51.79
2024-02-24T00:41:58.858Z,52.10
2024-02-24T00:43:00.821Z,52.20
2024-02-24T00:44:02.606Z,52.02
2024-02-24T00:45:04.894Z,52.09
2024-02-24T00:46:08.359Z,52.20
2024-02-24T00:47:10.192Z,52.23
2024-02-24T00:48:12.018Z,52.37
2024-02-24T00:49:16.008Z,52.51
2024-02-24T00:50:17.717Z,52.18
2024-02-24T00:51:19.366Z,52.29
2024-02-24T00:52:21.109Z,52.16
2024-02-24T00:53:23.091Z,52.35
2024-02-24T00:54:24.840Z,52.26
2024-02-24T00:55:26.520Z,52.34
2024-02-24T00:56:28.165Z,52.59
2024-02-24T00:57:30.157Z,52.38
2024-02-24T00:58:31.775Z,52.24
2024-02-24T00:59:38.066Z,52.24
2024-02-24T01:00:39.902Z,52.13
2024-02-24T01:01:41.507Z,52.13
2024-02-24T01:02:43.284Z,52.29
2024-02-24T01:03:45.074Z,52.17
2024-02-24T01:04:46.867Z,52.30
2024-02-24T01:05:48.612Z,52.22
2024-02-24T01:06:52.034Z,52.25
2024-02-24T01:07:59.665Z,52.20
2024-02-24T01:09:01.349Z,52.09
2024-02-24T01:10:03.373Z,51.97
2024-02-24T01:11:06.754Z,52.05
2024-02-24T01:12:08.544Z,51.93
2024-02-24T01:13:10.575Z,51.97
2024-02-24T01:14:12.408Z,52.10
2024-02-24T01:15:14.153Z,52.02
2024-02-24T01:16:17.464Z,52.17
2024-02-24T01:17:20.041Z,52.16
2024-02-24T01:18:24.566Z,51.88
2024-02-24T01:19:26.644Z,52.15
2024-02-24T01:20:30.849Z,51.90
2024-02-24T01:21:32.661Z,51.88
2024-02-24T01:22:34.394Z,51.80
2024-02-24T01:23:36.156Z,52.08
2024-02-24T01:24:37.821Z,51.86
2024-02-24T01:25:39.821Z,51.69
2024-02-24T01:26:41.981Z,51.74
2024-02-24T01:27:43.739Z,51.68
2024-02-24T01:28:49.504Z,51.91
2024-02-24T01:29:52.213Z,51.83
2024-02-24T01:30:53.862Z,51.95
2024-02-24T01:31:55.546Z,52.21
2024-02-24T01:32:57.496Z,52.01
2024-02-24T01:33:59.494Z,51.89
2024-02-24T01:35:02.310Z,51.93
2024-02-24T01:36:04.367Z,51.99
2024-02-24T01:37:06.035Z,52.03
2024-02-24T01:38:07.993Z,52.35
2024-02-24T01:39:10.239Z,52.09
2024-02-24T01:40:12.198Z,52.13
2024-02-24T01:41:14.172Z,52.04
2024-02-24T01:42:15.839Z,51.98
2024-02-24T01:43:28.034Z,52.26
2024-02-24T01:44:32.547Z,52.07
2024-02-24T01:45:34.228Z,52.14
2024-02-24T01:46:38.109Z,51.92
2024-02-24T01:47:42.412Z,52.07
2024-02-24T01:48:44.530Z,51.80
2024-02-24T01:49:47.513Z,51.80
2024-02-24T01:50:50.847Z,51.70
2024-02-24T01:51:56.805Z,51.94
2024-02-24T01:52:59.491Z,51.57
2024-02-24T01:54:04.356Z,51.77
2024-02-24T01:55:06.857Z,51.73
2024-02-24T01:56:11.106Z,51.52
2024-02-24T01:57:13.626Z,51.58
2024-02-24T01:58:18.482Z,51.44
2024-02-24T01:59:20.417Z,51.30
2024-02-24T02:12:44.543Z,51.58
2024-02-24T02:13:46.851Z,51.59
2024-02-24T02:14:51.852Z,51.91
2024-02-24T02:15:57.946Z,51.63
2024-02-24T02:16:59.768Z,51.51
2024-02-24T02:18:01.652Z,51.71
2024-02-24T02:19:05.588Z,51.30
2024-02-24T02:20:08.721Z,51.27
2024-02-24T02:21:12.242Z,51.41
2024-02-24T02:22:19.240Z,51.45
2024-02-24T02:23:21.548Z,51.58
2024-02-24T02:24:27.237Z,51.49
2024-02-24T02:25:29.056Z,51.61
2024-02-24T02:26:30.825Z,51.63
2024-02-24T02:27:33.650Z,51.39
2024-02-24T02:28:35.495Z,51.44
2024-02-24T02:29:37.246Z,51.22
2024-02-24T02:30:38.913Z,51.12
2024-02-24T02:31:40.576Z,51.37
2024-02-24T02:32:42.510Z,51.50
2024-02-24T02:33:44.537Z,51.30
2024-02-24T02:34:46.290Z,51.37
2024-02-24T02:35:48.058Z,51.61
2024-02-24T02:36:49.750Z,51.60
2024-02-24T02:37:51.310Z,51.78
2024-02-24T02:38:55.087Z,51.41
2024-02-24T02:39:56.741Z,51.66
2024-02-24T02:41:02.917Z,51.75
2024-02-24T02:42:04.878Z,51.71
2024-02-24T02:43:07.063Z,51.68
2024-02-24T02:44:09.803Z,51.77
2024-02-24T02:45:11.573Z,51.88
2024-02-24T02:46:17.998Z,51.80
2024-02-24T02:47:23.734Z,51.97
2024-02-24T02:48:26.343Z,51.88
2024-02-24T02:49:28.405Z,52.11
2024-02-24T02:50:30.179Z,52.22
2024-02-24T02:51:31.960Z,51.93
2024-02-24T02:52:33.489Z,52.29
2024-02-24T02:53:37.358Z,52.16
2024-02-24T02:54:39.430Z,52.29
2024-02-24T02:55:41.354Z,52.19
2024-02-24T02:56:45.340Z,52.10
2024-02-24T02:57:47.221Z,52.00
2024-02-24T02:58:53.507Z,51.99
2024-02-24T02:59:55.276Z,52.11
2024-02-24T03:00:57.138Z,51.94
2024-02-24T03:02:00.257Z,52.06
2024-02-24T03:03:09.196Z,52.12
2024-02-24T03:04:10.970Z,52.11
2024-02-24T03:05:12.726Z,51.96
2024-02-24T03:06:18.905Z,51.74
2024-02-24T03:07:23.210Z,51.80
2024-02-24T03:08:33.980Z,51.61
2024-02-24T03:09:38.271Z,51.66
2024-02-24T03:10:42.552Z,51.62
2024-02-24T03:11:47.060Z,51.93
2024-02-24T03:12:51.265Z,51.72
2024-02-24T03:13:52.851Z,51.82
2024-02-24T03:14:54.541Z,51.52
2024-02-24T03:15:56.313Z,51.66
2024-02-24T03:16:58.275Z,51.57
2024-02-24T03:17:59.987Z,51.59
2024-02-24T03:19:02.132Z,51.50
2024-02-24T03:20:05.319Z,51.58
2024-02-24T03:21:07.136Z,51.34
2024-02-24T03:22:08.745Z,51.87
2024-02-24T03:23:15.058Z,51.74
2024-02-24T03:24:16.743Z,51.96
2024-02-24T03:25:18.329Z,52.03
2024-02-24T03:26:22.739Z,52.15
2024-02-24T03:27:25.173Z,51.94
2024-02-24T03:28:27.483Z,52.36
2024-02-24T03:29:29.333Z,51.97
2024-02-24T03:30:31.029Z,52.09
2024-02-24T03:31:34.992Z,51.82
2024-02-24T03:32:39.810Z,51.95
2024-02-24T03:33:41.681Z,51.94
2024-02-24T03:34:45.582Z,51.68
2024-02-24T03:35:47.238Z,51.97
2024-02-24T03:36:49.121Z,51.83
2024-02-24T03:37:52.067Z,51.59
2024-02-24T03:38:58.356Z,51.79
2024-02-24T03:40:00.403Z,51.61
2024-02-24T03:41:03.047Z,51.44
2024-02-24T03:42:07.433Z,51.65
2024-02-24T03:43:09.141Z,51.37
2024-02-24T03:44:10.721Z,51.74
2024-02-24T03:45:15.125Z,51.36
2024-02-24T03:46:17.173Z,51.25
2024-02-24T03:47:18.963Z,51.24
2024-02-24T03:48:20.985Z,51.21
2024-02-24T03:49:22.930Z,51.23
2024-02-24T03:50:27.000Z,51.24
2024-02-24T03:51:29.346Z,51.39
2024-02-24T03:52:31.205Z,51.13
2024-02-24T03:53:33.082Z,51.26
2024-02-24T03:54:34.841Z,51.30
2024-02-24T03:55:36.471Z,51.23
2024-02-24T03:56:38.140Z,51.25
2024-02-24T03:57:39.946Z,51.56
2024-02-24T03:58:42.530Z,51.64
2024-02-24T03:59:44.098Z,51.55
2024-02-24T04:00:51.688Z,51.46
2024-02-24T04:01:53.502Z,51.42
2024-02-24T04:02:55.181Z,51.52
2024-02-24T04:03:59.351Z,51.28
2024-02-24T04:05:02.126Z,51.48
2024-02-24T04:06:04.778Z,51.43
2024-02-24T04:07:06.756Z,51.15
2024-02-24T04:08:08.418Z,51.38
2024-02-24T04:09:10.173Z,51.33
2024-02-24T04:10:12.306Z,51.03
2024-02-24T04:11:14.176Z,51.16
2024-02-24T04:12:15.978Z,51.25
2024-02-24T04:13:21.489Z,51.48
2024-02-24T04:14:24.072Z,52.05
2024-02-24T04:15:25.816Z,52.43
2024-02-24T04:16:27.463Z,52.84
2024-02-24T04:17:31.454Z,52.61
2024-02-24T04:18:33.976Z,52.09
2024-02-24T04:19:35.874Z,52.29
2024-02-24T04:20:37.475Z,52.52
2024-02-24T04:21:41.371Z,52.45
2024-02-24T04:22:43.438Z,51.77
2024-02-24T04:23:45.513Z,51.69
2024-02-24T04:24:47.357Z,51.91
2024-02-24T04:25:49.298Z,51.85
2024-02-24T04:26:51.194Z,51.88
2024-02-24T04:27:52.848Z,52.52
2024-02-24T04:28:54.508Z,52.76
2024-02-24T04:29:56.280Z,53.01
2024-02-24T04:30:57.960Z,52.93
2024-02-24T04:31:59.673Z,53.09
2024-02-24T04:33:04.481Z,52.71
2024-02-24T04:34:06.501Z,52.68
2024-02-24T04:35:11.357Z,52.94
2024-02-24T04:36:13.245Z,52.90
2024-02-24T04:37:15.938Z,52.74
2024-02-24T04:38:19.793Z,52.79
2024-02-24T04:39:22.209Z,52.46
2024-02-24T04:40:25.900Z,52.46
2024-02-24T04:41:27.566Z,52.52
2024-02-24T04:42:29.270Z,52.30
2024-02-24T04:43:32.336Z,52.58
2024-02-24T04:44:35.295Z,52.42
2024-02-24T04:45:41.555Z,52.15
2024-02-24T04:46:43.300Z,52.41
2024-02-24T04:47:45.453Z,52.11
2024-02-24T04:48:49.906Z,52.52
2024-02-24T04:49:52.626Z,52.16
2024-02-24T04:51:02.230Z,52.37
2024-02-24T04:52:05.848Z,52.47
2024-02-24T04:53:07.813Z,52.12
2024-02-24T04:54:11.778Z,52.37
2024-02-24T04:55:13.660Z,52.13
2024-02-24T04:56:17.873Z,52.25
2024-02-24T04:57:21.968Z,52.21
2024-02-24T04:58:25.766Z,52.14
2024-02-24T04:59:28.524Z,52.05
2024-02-24T05:02:09.175Z,52.87
2024-02-24T05:03:10.940Z,53.21
2024-02-24T05:04:12.632Z,53.37
2024-02-24T05:05:14.484Z,53.12
2024-02-24T05:06:16.391Z,53.05
2024-02-24T05:07:20.503Z,53.05
2024-02-24T05:08:22.228Z,53.05
2024-02-24T05:09:24.232Z,53.33
2024-02-24T05:10:27.193Z,53.24
2024-02-24T05:11:29.042Z,53.13
2024-02-24T05:12:30.818Z,53.04
2024-02-24T05:13:32.813Z,53.28
2024-02-24T05:14:34.535Z,53.20
2024-02-24T05:15:36.604Z,53.09
2024-02-24T05:16:41.515Z,53.57
2024-02-24T05:17:44.060Z,53.57
2024-02-24T05:18:48.476Z,53.76
2024-02-24T05:19:50.282Z,53.72
2024-02-24T05:20:52.114Z,53.74
2024-02-24T05:21:56.054Z,53.89
2024-02-24T05:22:58.086Z,53.70
2024-02-24T05:24:02.294Z,53.77
2024-02-24T05:25:04.478Z,54.47
2024-02-24T05:26:06.106Z,54.54
2024-02-24T05:27:07.806Z,52.41
2024-02-24T05:28:10.275Z,51.92
2024-02-24T05:29:12.255Z,52.02
2024-02-24T05:30:14.440Z,52.59
2024-02-24T05:31:16.972Z,52.40
2024-02-24T05:32:18.694Z,52.23
2024-02-24T05:33:20.800Z,52.18
2024-02-24T05:34:22.868Z,52.05
2024-02-24T05:35:24.770Z,51.95
2024-02-24T05:36:26.725Z,51.88
2024-02-24T05:37:28.680Z,51.81
2024-02-24T05:38:30.307Z,51.84
2024-02-24T05:39:31.949Z,51.93
2024-02-24T05:40:36.069Z,52.23
2024-02-24T05:41:37.952Z,52.24
2024-02-24T05:42:39.790Z,52.18
2024-02-24T05:43:41.934Z,52.19
2024-02-24T05:44:43.666Z,52.14
2024-02-24T05:45:45.233Z,52.27
2024-02-24T05:46:47.308Z,52.51
2024-02-24T05:47:51.415Z,52.47
2024-02-24T05:48:53.309Z,52.18
2024-02-24T05:49:55.203Z,52.36
2024-02-24T05:50:57.440Z,52.76
2024-02-24T05:51:59.138Z,52.65
2024-02-24T05:53:03.487Z,52.75
2024-02-24T05:54:05.322Z,52.61
2024-02-24T05:55:08.889Z,52.83
2024-02-24T05:56:10.668Z,53.16
2024-02-24T05:57:12.287Z,53.50
2024-02-24T05:58:13.953Z,53.24
2024-02-24T05:59:18.533Z,53.36
2024-02-24T06:00:20.349Z,53.32
2024-02-24T06:01:21.971Z,53.44
2024-02-24T06:02:23.538Z,53.40
2024-02-24T06:03:27.426Z,53.61
2024-02-24T06:04:31.240Z,53.48
2024-02-24T06:05:33.928Z,53.73
2024-02-24T06:06:35.780Z,53.76
2024-02-24T06:07:40.077Z,53.57
2024-02-24T06:08:45.067Z,53.68
2024-02-24T06:09:49.068Z,53.70
2024-02-24T06:10:50.839Z,53.56
2024-02-24T06:11:52.846Z,53.74
2024-02-24T06:12:57.036Z,53.85
2024-02-24T06:13:58.697Z,53.84
2024-02-24T06:15:00.366Z,54.14
2024-02-24T06:16:02.418Z,54.13
2024-02-24T06:17:04.701Z,54.07
2024-02-24T06:18:06.772Z,53.94
2024-02-24T06:19:08.521Z,53.86
2024-02-24T06:20:13.179Z,53.79
2024-02-24T06:21:15.422Z,53.92
2024-02-24T06:22:17.332Z,53.94
2024-02-24T06:23:19.204Z,53.82
2024-02-24T06:24:21.177Z,53.92
2024-02-24T06:25:23.688Z,53.79
2024-02-24T06:26:27.919Z,53.80
2024-02-24T06:27:32.266Z,53.72
2024-02-24T06:28:34.009Z,53.62
2024-02-24T06:29:35.549Z,53.89
2024-02-24T06:30:38.740Z,53.81
2024-02-24T06:31:40.365Z,53.61
2024-02-24T06:32:42.133Z,53.79
2024-02-24T06:33:44.018Z,53.90
2024-02-24T06:34:46.673Z,53.85
2024-02-24T06:35:50.878Z,54.08
2024-02-24T06:36:52.619Z,54.18
2024-02-24T06:37:54.417Z,54.06
2024-02-24T06:38:58.607Z,54.20
2024-02-24T06:40:03.575Z,54.46
2024-02-24T06:41:05.339Z,54.60
2024-02-24T06:42:07.112Z,54.67
2024-02-24T06:43:08.871Z,54.64
2024-02-24T06:44:10.923Z,54.70
2024-02-24T06:45:12.684Z,54.77
2024-02-24T06:46:15.638Z,55.38
2024-02-24T06:47:28.383Z,54.95
2024-02-24T06:48:34.146Z,54.66
2024-02-24T06:49:36.883Z,54.65
2024-02-24T06:50:38.691Z,54.51
2024-02-24T06:51:41.241Z,54.64
2024-02-24T06:52:42.916Z,54.38
2024-02-24T06:53:44.703Z,54.53
2024-02-24T06:54:46.352Z,54.73
2024-02-24T06:55:50.196Z,54.68
2024-02-24T06:56:58.485Z,54.60
2024-02-24T06:58:02.022Z,54.47
2024-02-24T06:59:07.814Z,54.34
2024-02-24T07:00:10.610Z,54.34
2024-02-24T07:01:23.754Z,53.98
2024-02-24T07:02:26.080Z,54.17
2024-02-24T07:03:28.107Z,54.34
2024-02-24T07:04:31.902Z,54.17
2024-02-24T07:05:33.705Z,54.18
2024-02-24T07:06:38.691Z,54.03
2024-02-24T07:07:40.567Z,54.25
2024-02-24T07:08:42.484Z,54.14
2024-02-24T07:09:44.147Z,54.16
2024-02-24T07:10:45.952Z,54.05
2024-02-24T07:11:47.869Z,54.00
2024-02-24T07:12:50.257Z,54.04
2024-02-24T07:13:52.079Z,54.19
2024-02-24T07:14:53.884Z,54.00
2024-02-24T07:15:55.491Z,54.25
2024-02-24T07:16:57.223Z,54.15
2024-02-24T07:17:59.095Z,53.91
2024-02-24T07:19:00.958Z,54.06
2024-02-24T07:20:02.894Z,53.89
2024-02-24T07:21:05.357Z,53.89
2024-02-24T07:22:07.120Z,53.74
2024-02-24T07:23:08.859Z,54.00
2024-02-24T07:24:10.919Z,53.99
2024-02-24T07:25:14.720Z,53.87
2024-02-24T07:26:16.293Z,54.26
2024-02-24T07:27:18.103Z,53.79
2024-02-24T07:28:19.736Z,54.02
2024-02-24T07:29:21.421Z,53.77
2024-02-24T07:30:23.022Z,53.97
2024-02-24T07:31:24.711Z,53.66
2024-02-24T07:32:26.333Z,53.77
2024-02-24T07:33:28.533Z,53.87
2024-02-24T07:34:34.529Z,53.76
2024-02-24T07:35:36.274Z,53.79
2024-02-24T07:36:38.121Z,53.83
2024-02-24T07:37:39.669Z,53.89
2024-02-24T07:38:43.858Z,53.82
2024-02-24T07:39:45.920Z,53.92
2024-02-24T07:40:47.624Z,54.11
2024-02-24T07:41:49.302Z,53.84
2024-02-24T07:42:55.614Z,54.01
2024-02-24T07:43:57.403Z,53.94
2024-02-24T07:44:59.403Z,53.88
2024-02-24T07:46:01.869Z,53.66
2024-02-24T07:47:04.630Z,53.87
2024-02-24T07:48:08.833Z,53.75
2024-02-24T07:49:13.177Z,53.67
2024-02-24T07:50:17.337Z,53.79
2024-02-24T07:51:21.641Z,53.54
2024-02-24T07:52:23.389Z,53.47
2024-02-24T07:53:24.960Z,53.46
2024-02-24T07:54:28.907Z,53.37
2024-02-24T07:55:32.110Z,53.80
2024-02-24T07:56:34.008Z,53.56
2024-02-24T07:57:35.904Z,53.36
2024-02-24T07:58:37.698Z,53.20
2024-02-24T07:59:41.715Z,53.29
2024-02-24T08:02:14.227Z,53.65
2024-02-24T08:03:18.468Z,53.88
2024-02-24T08:04:21.910Z,53.84
2024-02-24T08:05:23.880Z,53.94
2024-02-24T08:06:25.756Z,53.65
2024-02-24T08:07:28.734Z,53.37
2024-02-24T08:08:31.335Z,53.29
2024-02-24T08:09:38.437Z,53.27
2024-02-24T08:10:40.104Z,53.27
2024-02-24T08:11:42.150Z,53.26
2024-02-24T08:12:44.288Z,53.15
2024-02-24T08:13:47.275Z,52.97
2024-02-24T08:14:49.298Z,53.01
2024-02-24T08:15:51.275Z,53.17
2024-02-24T08:16:55.064Z,53.12
2024-02-24T08:17:56.751Z,53.13
2024-02-24T08:18:58.934Z,52.99
2024-02-24T08:20:00.815Z,52.94
2024-02-24T08:21:08.397Z,52.71
2024-02-24T08:22:10.342Z,52.57
2024-02-24T08:23:11.962Z,52.86
2024-02-24T08:24:17.433Z,52.38
2024-02-24T08:25:22.285Z,52.11
2024-02-24T08:26:24.025Z,52.04
2024-02-24T08:27:25.600Z,52.38
2024-02-24T08:28:29.819Z,52.12
2024-02-24T08:29:34.172Z,52.20
2024-02-24T08:30:36.557Z,51.85
2024-02-24T08:31:39.701Z,51.86
2024-02-24T08:32:41.532Z,52.04
2024-02-24T08:33:43.534Z,52.14
2024-02-24T08:34:48.003Z,51.78
2024-02-24T08:35:51.033Z,51.57
2024-02-24T08:36:53.224Z,51.58
2024-02-24T08:37:55.108Z,51.69
2024-02-24T08:38:59.548Z,51.94
2024-02-24T08:40:01.303Z,51.41
2024-02-24T08:41:03.057Z,51.87
2024-02-24T08:42:06.024Z,51.69
2024-02-24T08:43:10.300Z,51.18
2024-02-24T08:44:14.723Z,51.30
2024-02-24T08:45:16.625Z,51.13
2024-02-24T08:46:20.630Z,50.93
2024-02-24T08:47:22.393Z,50.94
2024-02-24T08:48:24.839Z,51.05
2024-02-24T08:49:26.604Z,50.85
2024-02-24T08:50:30.904Z,50.40
2024-02-24T08:51:32.705Z,50.42
2024-02-24T08:52:46.142Z,50.31
2024-02-24T08:53:58.820Z,50.21
2024-02-24T08:55:00.658Z,50.21
2024-02-24T08:56:06.229Z,50.70
2024-02-24T08:57:08.385Z,49.97
2024-02-24T08:58:10.134Z,50.12
2024-02-24T08:59:18.998Z,49.91
2024-02-24T09:00:20.866Z,49.84
2024-02-24T09:01:22.652Z,49.82
2024-02-24T09:02:24.654Z,49.77
2024-02-24T09:03:26.578Z,49.32
2024-02-24T09:04:28.302Z,49.47
2024-02-24T09:05:29.996Z,49.48
2024-02-24T09:06:32.805Z,49.34
2024-02-24T09:07:39.451Z,49.03
2024-02-24T09:08:41.374Z,49.07
2024-02-24T09:09:43.208Z,48.83
2024-02-24T09:10:44.891Z,49.31
2024-02-24T09:11:47.683Z,48.69
2024-02-24T09:12:49.528Z,48.53
2024-02-24T09:13:53.722Z,48.51
2024-02-24T09:14:55.601Z,48.61
2024-02-24T09:15:57.482Z,48.50
2024-02-24T09:16:59.142Z,48.86
2024-02-24T09:18:00.932Z,48.45
2024-02-24T09:19:03.087Z,48.55
2024-02-24T09:20:09.926Z,48.41
2024-02-24T09:21:14.237Z,48.25
2024-02-24T09:22:16.091Z,47.87
2024-02-24T09:23:17.655Z,48.00
2024-02-24T09:24:19.662Z,48.13
2024-02-24T09:25:22.867Z,47.76
2024-02-24T09:26:27.384Z,47.83
2024-02-24T09:27:30.053Z,47.98
2024-02-24T09:28:34.155Z,47.67
2024-02-24T09:29:35.881Z,47.48
2024-02-24T09:30:37.971Z,48.04
2024-02-24T09:31:41.417Z,47.87
2024-02-24T09:32:43.266Z,47.40
2024-02-24T09:33:45.254Z,47.27
2024-02-24T09:34:47.230Z,47.18
2024-02-24T09:35:49.685Z,47.16
2024-02-24T09:36:51.384Z,47.30
2024-02-24T09:37:53.090Z,47.44
2024-02-24T09:38:57.942Z,47.28
2024-02-24T09:40:04.452Z,47.35
2024-02-24T09:41:06.553Z,47.70
2024-02-24T09:42:10.793Z,47.44
2024-02-24T09:43:15.130Z,47.47
2024-02-24T09:44:17.711Z,47.21
2024-02-24T09:45:23.831Z,46.92
2024-02-24T09:46:31.018Z,46.91
2024-02-24T09:47:33.566Z,46.83
2024-02-24T09:48:35.459Z,46.81
2024-02-24T09:49:40.435Z,46.69
2024-02-24T09:50:42.796Z,47.13
2024-02-24T09:51:49.302Z,47.32
2024-02-24T09:52:51.037Z,47.22
2024-02-24T09:53:52.677Z,46.63
2024-02-24T09:54:54.353Z,47.06
2024-02-24T09:55:56.448Z,45.89
2024-02-24T09:56:58.792Z,46.50
2024-02-24T09:58:01.543Z,46.24
2024-02-24T09:59:07.213Z,46.09
2024-02-24T10:00:11.550Z,45.70
2024-02-24T10:01:16.957Z,45.32
2024-02-24T10:02:20.836Z,44.86
2024-02-24T10:03:26.422Z,44.71
2024-02-24T10:04:28.402Z,43.95
2024-02-24T10:05:32.430Z,43.54
2024-02-24T10:06:40.668Z,43.33
2024-02-24T10:07:42.456Z,43.55
2024-02-24T10:08:45.228Z,44.00
2024-02-24T10:09:48.369Z,43.82
2024-02-24T10:10:50.562Z,43.44
2024-02-24T10:11:53.246Z,42.75
2024-02-24T10:12:59.536Z,42.50
2024-02-24T10:14:01.279Z,42.34
2024-02-24T10:15:02.983Z,42.07
2024-02-24T10:16:07.577Z,41.86
2024-02-24T10:17:09.421Z,41.33
2024-02-24T10:18:11.496Z,40.94
2024-02-24T10:19:13.671Z,40.93
2024-02-24T10:20:15.540Z,40.97
2024-02-24T10:21:17.830Z,40.79
2024-02-24T10:22:20.366Z,40.73
2024-02-24T10:23:22.196Z,40.20
2024-02-24T10:24:26.887Z,40.39
2024-02-24T10:25:28.574Z,41.21
2024-02-24T10:26:32.633Z,40.65
2024-02-24T10:27:34.968Z,40.09
2024-02-24T10:28:36.812Z,39.75
2024-02-24T10:29:38.374Z,40.02
2024-02-24T10:30:41.108Z,40.19
2024-02-24T10:31:46.040Z,39.13
2024-02-24T10:32:52.060Z,39.25
2024-02-24T10:33:54.695Z,39.17
2024-02-24T10:34:57.374Z,39.46
2024-02-24T10:36:03.437Z,39.27
2024-02-24T10:37:05.275Z,39.31
2024-02-24T10:38:18.719Z,38.82
2024-02-24T10:39:35.230Z,38.45
2024-02-24T10:40:41.641Z,38.61
2024-02-24T10:41:47.694Z,37.65
2024-02-24T10:42:54.226Z,37.53
2024-02-24T10:44:10.731Z,37.64
2024-02-24T10:45:22.356Z,37.67
2024-02-24T10:46:27.108Z,38.20
2024-02-24T10:47:29.176Z,37.42
2024-02-24T10:48:31.191Z,36.88
2024-02-24T10:49:35.370Z,36.97
2024-02-24T10:50:37.413Z,36.99
2024-02-24T10:51:39.678Z,36.91
2024-02-24T10:52:41.939Z,36.90
2024-02-24T10:53:48.736Z,36.65
2024-02-24T10:54:54.546Z,37.04
2024-02-24T10:56:03.280Z,37.35
2024-02-24T10:57:06.639Z,37.30
2024-02-24T10:58:11.183Z,36.43
2024-02-24T10:59:13.036Z,36.44
2024-02-24T11:02:21.836Z,36.90
2024-02-24T11:03:24.374Z,37.23
2024-02-24T11:04:26.450Z,37.56
2024-02-24T11:05:34.382Z,37.39
2024-02-24T11:06:53.661Z,37.30
2024-02-24T11:07:58.553Z,36.81
2024-02-24T11:09:01.515Z,36.25
2024-02-24T11:10:03.490Z,36.42
2024-02-24T11:11:10.116Z,36.05
2024-02-24T11:12:12.730Z,36.14
2024-02-24T11:13:14.857Z,35.46
2024-02-24T11:14:22.545Z,35.73
2024-02-24T11:15:25.448Z,35.28
2024-02-24T11:16:27.213Z,35.92
2024-02-24T11:17:51.664Z,35.35
2024-02-24T11:18:54.407Z,36.06
2024-02-24T11:19:56.165Z,35.71
2024-02-24T11:20:57.911Z,35.64
2024-02-24T11:22:04.346Z,36.05
2024-02-24T11:23:25.952Z,35.29
2024-02-24T11:24:32.655Z,34.72
2024-02-24T11:25:34.752Z,34.68
2024-02-24T11:26:37.745Z,34.86
2024-02-24T11:27:41.847Z,34.73
2024-02-24T11:28:49.879Z,34.83
2024-02-24T11:29:51.768Z,35.02
2024-02-24T11:30:55.432Z,35.68
2024-02-24T11:32:14.731Z,35.55
2024-02-24T11:33:29.566Z,35.27
2024-02-24T11:34:35.686Z,35.67
2024-02-24T11:35:38.061Z,34.46
2024-02-24T11:36:42.059Z,34.86
2024-02-24T11:37:43.988Z,34.58
2024-02-24T11:38:48.830Z,33.96
2024-02-24T11:39:53.178Z,34.08
2024-02-24T11:40:56.515Z,33.98
2024-02-24T11:41:58.637Z,34.09
2024-02-24T11:43:00.421Z,34.19
2024-02-24T11:44:02.375Z,34.12
2024-02-24T11:45:06.065Z,34.33
2024-02-24T11:46:12.887Z,34.23
2024-02-24T11:47:20.644Z,34.11
2024-02-24T11:48:23.515Z,34.09
2024-02-24T11:49:26.602Z,33.97
2024-02-24T11:50:28.322Z,33.59
2024-02-24T11:51:30.163Z,33.52
2024-02-24T11:52:33.190Z,32.75
2024-02-24T11:53:35.265Z,32.82
2024-02-24T11:54:40.975Z,32.73
2024-02-24T11:55:43.517Z,33.01
2024-02-24T11:56:45.445Z,32.67
2024-02-24T11:57:47.189Z,32.42
2024-02-24T11:58:51.323Z,32.27
2024-02-24T11:59:52.869Z,32.62
2024-02-24T12:00:56.554Z,32.29
2024-02-24T12:01:58.468Z,32.13
2024-02-24T12:03:02.248Z,31.28
2024-02-24T12:04:04.250Z,31.62
2024-02-24T12:05:18.452Z,31.38
2024-02-24T12:06:25.113Z,30.76
2024-02-24T12:07:28.113Z,30.66
2024-02-24T12:08:30.623Z,30.57
2024-02-24T12:09:32.547Z,30.83
2024-02-24T12:10:38.499Z,30.93
2024-02-24T12:11:43.090Z,31.54
2024-02-24T12:12:45.007Z,31.38
2024-02-24T12:13:48.958Z,31.24
2024-02-24T12:14:55.141Z,31.35
2024-02-24T12:15:58.942Z,30.92
2024-02-24T12:17:00.642Z,30.21
2024-02-24T12:18:02.873Z,30.91
2024-02-24T12:19:07.818Z,31.45
2024-02-24T12:20:11.551Z,31.07
2024-02-24T12:21:15.927Z,31.08
2024-02-24T12:22:17.627Z,31.06
2024-02-24T12:23:20.308Z,31.30
2024-02-24T12:24:31.847Z,30.92
2024-02-24T12:25:37.162Z,31.00
2024-02-24T12:26:39.040Z,30.82
2024-02-24T12:27:41.966Z,31.03
2024-02-24T12:28:46.410Z,30.95
2024-02-24T12:29:48.320Z,31.28
2024-02-24T12:30:50.196Z,31.30
2024-02-24T12:31:51.827Z,31.96
2024-02-24T12:32:56.582Z,31.08
2024-02-24T12:33:58.926Z,31.88
2024-02-24T12:35:07.026Z,32.42
2024-02-24T12:36:11.408Z,31.60
2024-02-24T12:37:13.212Z,31.76
2024-02-24T12:38:17.713Z,32.15
2024-02-24T12:39:21.914Z,32.52
2024-02-24T12:40:29.167Z,31.92
2024-02-24T12:41:33.532Z,32.29
2024-02-24T12:42:40.331Z,32.18
2024-02-24T12:43:42.842Z,32.51
2024-02-24T12:44:47.226Z,32.73
2024-02-24T12:45:50.910Z,32.58
2024-02-24T12:46:53.480Z,32.58
2024-02-24T12:47:58.916Z,32.15
2024-02-24T12:49:03.007Z,31.78
2024-02-24T12:50:05.193Z,32.23
2024-02-24T12:51:06.965Z,32.35
2024-02-24T12:52:08.518Z,32.79
2024-02-24T12:53:10.458Z,32.59
2024-02-24T12:54:15.416Z,32.45
2024-02-24T12:55:18.310Z,32.36
2024-02-24T12:56:20.078Z,32.26
2024-02-24T12:57:21.672Z,32.31
2024-02-24T12:58:25.968Z,32.51
2024-02-24T12:59:29.900Z,32.29
2024-02-24T13:00:31.835Z,32.63
2024-02-24T13:01:33.731Z,32.46
2024-02-24T13:02:36.297Z,32.29
2024-02-24T13:03:38.151Z,32.06
2024-02-24T13:04:40.025Z,32.18
2024-02-24T13:05:42.007Z,31.78
2024-02-24T13:06:44.050Z,31.92
2024-02-24T13:07:45.786Z,32.10
2024-02-24T13:08:47.648Z,32.12
2024-02-24T13:09:51.891Z,31.83
2024-02-24T13:10:53.813Z,31.67
2024-02-24T13:11:56.840Z,31.71
2024-02-24T13:13:01.429Z,31.26
2024-02-24T13:14:03.268Z,31.28
2024-02-24T13:15:05.944Z,30.83
2024-02-24T13:16:09.728Z,30.99
2024-02-24T13:17:11.680Z,31.04
2024-02-24T13:18:13.527Z,30.67
2024-02-24T13:19:15.311Z,31.12
2024-02-24T13:20:17.045Z,31.54
2024-02-24T13:21:19.363Z,31.64
2024-02-24T13:22:21.619Z,30.89
2024-02-24T13:23:23.413Z,31.23
2024-02-24T13:24:25.207Z,31.23
2024-02-24T13:25:27.819Z,31.03
2024-02-24T13:26:29.809Z,30.99
2024-02-24T13:27:31.533Z,30.64
2024-02-24T13:28:33.168Z,31.08
2024-02-24T13:29:34.875Z,30.79
2024-02-24T13:30:37.131Z,30.69
2024-02-24T13:31:38.930Z,30.58
2024-02-24T13:32:41.206Z,30.71
2024-02-24T13:33:43.181Z,30.71
2024-02-24T13:34:47.274Z,31.27
2024-02-24T13:35:48.987Z,31.54
2024-02-24T13:36:50.833Z,31.34
2024-02-24T13:37:52.420Z,31.68
2024-02-24T13:38:55.790Z,31.79
2024-02-24T13:40:00.086Z,31.48
2024-02-24T13:41:01.810Z,31.20
2024-02-24T13:42:03.914Z,31.25
2024-02-24T13:43:05.718Z,31.05
2024-02-24T13:44:08.340Z,31.69
2024-02-24T13:45:10.166Z,32.09
2024-02-24T13:46:14.504Z,31.52
2024-02-24T13:47:16.772Z,31.31
2024-02-24T13:48:18.670Z,31.29
2024-02-24T13:49:21.391Z,30.91
2024-02-24T13:50:23.832Z,31.04